sensor_id;sensor_type;location;lat;lon;timestamp;P1;durP1;ratioP1;P2;durP2;ratioP2
71038;SDS011;58692;43.212;27.908;2023-10-19T00:00:04;15.50;;;5.13;;
71038;SDS011;58692;43.212;27.908;2023-10-19T00:02:45;11.05;;;5.13;;
71038;SDS011;58692;43.212;27.908;2023-10-19T00:05:12;14.30;;;5.78;;
71038;SDS011;58692;43.212;27.908;2023-10-19T00:07:39;16.27;;;5.85;;
71038;SDS011;58692;43.212;27.908;2023-10-19T00:10:06;15.83;;;6.13;;
71038;SDS011;58692;43.212;27.908;2023-10-19T00:12:32;18.88;;;7.13;;
71038;SDS011;58692;43.212;27.908;2023-10-19T00:14:58;15.10;;;6.85;;
71038;SDS011;58692;43.212;27.908;2023-10-19T00:17:25;13.10;;;5.97;;
71038;SDS011;58692;43.212;27.908;2023-10-19T00:19:52;14.40;;;7.20;;
71038;SDS011;58692;43.212;27.908;2023-10-19T00:22:33;11.43;;;5.50;;
71038;SDS011;58692;43.212;27.908;2023-10-19T00:25:01;15.20;;;5.43;;
71038;SDS011;58692;43.212;27.908;2023-10-19T00:27:28;15.00;;;6.20;;
71038;SDS011;58692;43.212;27.908;2023-10-19T00:29:54;12.47;;;5.57;;
71038;SDS011;58692;43.212;27.908;2023-10-19T00:32:27;14.18;;;6.07;;
71038;SDS011;58692;43.212;27.908;2023-10-19T00:34:54;14.85;;;6.07;;
71038;SDS011;58692;43.212;27.908;2023-10-19T00:37:20;12.20;;;5.60;;
71038;SDS011;58692;43.212;27.908;2023-10-19T00:39:52;14.43;;;6.18;;
71038;SDS011;58692;43.212;27.908;2023-10-19T00:42:20;17.08;;;7.18;;
71038;SDS011;58692;43.212;27.908;2023-10-19T00:44:50;16.13;;;6.35;;
71038;SDS011;58692;43.212;27.908;2023-10-19T00:47:16;18.73;;;6.87;;
71038;SDS011;58692;43.212;27.908;2023-10-19T00:49:48;15.18;;;6.60;;
71038;SDS011;58692;43.212;27.908;2023-10-19T00:52:14;16.83;;;7.55;;
71038;SDS011;58692;43.212;27.908;2023-10-19T00:54:44;22.63;;;8.10;;
71038;SDS011;58692;43.212;27.908;2023-10-19T00:57:17;20.13;;;7.60;;
71038;SDS011;58692;43.212;27.908;2023-10-19T00:59:45;16.23;;;7.03;;
71038;SDS011;58692;43.212;27.908;2023-10-19T01:02:16;20.05;;;7.97;;
71038;SDS011;58692;43.212;27.908;2023-10-19T01:04:47;20.05;;;8.40;;
71038;SDS011;58692;43.212;27.908;2023-10-19T01:07:16;23.50;;;8.93;;
71038;SDS011;58692;43.212;27.908;2023-10-19T01:10:00;18.48;;;7.65;;
71038;SDS011;58692;43.212;27.908;2023-10-19T01:12:30;21.10;;;8.20;;
71038;SDS011;58692;43.212;27.908;2023-10-19T01:15:05;15.85;;;7.00;;
71038;SDS011;58692;43.212;27.908;2023-10-19T01:17:33;25.38;;;7.97;;
71038;SDS011;58692;43.212;27.908;2023-10-19T01:20:04;20.87;;;6.83;;
71038;SDS011;58692;43.212;27.908;2023-10-19T01:22:50;17.90;;;7.20;;
71038;SDS011;58692;43.212;27.908;2023-10-19T01:28:26;22.00;;;7.75;;
71038;SDS011;58692;43.212;27.908;2023-10-19T01:31:09;21.15;;;8.32;;
71038;SDS011;58692;43.212;27.908;2023-10-19T01:34:03;19.63;;;9.60;;
71038;SDS011;58692;43.212;27.908;2023-10-19T01:36:31;21.20;;;8.75;;
71038;SDS011;58692;43.212;27.908;2023-10-19T01:39:07;18.30;;;8.18;;
71038;SDS011;58692;43.212;27.908;2023-10-19T01:41:36;21.13;;;7.95;;
71038;SDS011;58692;43.212;27.908;2023-10-19T01:44:03;17.42;;;7.43;;
71038;SDS011;58692;43.212;27.908;2023-10-19T01:46:30;15.80;;;7.60;;
71038;SDS011;58692;43.212;27.908;2023-10-19T01:48:58;16.77;;;7.78;;
71038;SDS011;58692;43.212;27.908;2023-10-19T01:51:27;20.17;;;9.18;;
71038;SDS011;58692;43.212;27.908;2023-10-19T01:53:54;26.63;;;9.73;;
71038;SDS011;58692;43.212;27.908;2023-10-19T01:56:21;22.65;;;9.85;;
71038;SDS011;58692;43.212;27.908;2023-10-19T01:58:47;28.40;;;11.93;;
71038;SDS011;58692;43.212;27.908;2023-10-19T02:01:15;24.10;;;12.05;;
71038;SDS011;58692;43.212;27.908;2023-10-19T02:04:03;31.60;;;12.63;;
71038;SDS011;58692;43.212;27.908;2023-10-19T02:06:31;26.23;;;12.57;;
71038;SDS011;58692;43.212;27.908;2023-10-19T02:08:59;25.45;;;12.32;;
71038;SDS011;58692;43.212;27.908;2023-10-19T02:11:34;25.23;;;11.57;;
71038;SDS011;58692;43.212;27.908;2023-10-19T02:14:06;23.40;;;11.02;;
71038;SDS011;58692;43.212;27.908;2023-10-19T02:16:39;18.10;;;9.45;;
71038;SDS011;58692;43.212;27.908;2023-10-19T02:19:06;18.40;;;9.65;;
71038;SDS011;58692;43.212;27.908;2023-10-19T02:21:31;20.23;;;9.40;;
71038;SDS011;58692;43.212;27.908;2023-10-19T02:23:58;20.02;;;8.85;;
71038;SDS011;58692;43.212;27.908;2023-10-19T02:26:23;16.70;;;8.57;;
71038;SDS011;58692;43.212;27.908;2023-10-19T02:28:51;18.52;;;9.07;;
71038;SDS011;58692;43.212;27.908;2023-10-19T02:31:18;19.00;;;8.93;;
71038;SDS011;58692;43.212;27.908;2023-10-19T02:33:47;16.08;;;8.13;;
71038;SDS011;58692;43.212;27.908;2023-10-19T02:36:17;18.50;;;8.45;;
71038;SDS011;58692;43.212;27.908;2023-10-19T02:38:45;16.63;;;7.87;;
71038;SDS011;58692;43.212;27.908;2023-10-19T02:41:17;19.50;;;8.68;;
71038;SDS011;58692;43.212;27.908;2023-10-19T02:43:44;16.08;;;7.15;;
71038;SDS011;58692;43.212;27.908;2023-10-19T02:46:12;15.15;;;7.07;;
71038;SDS011;58692;43.212;27.908;2023-10-19T02:48:39;13.93;;;6.78;;
71038;SDS011;58692;43.212;27.908;2023-10-19T02:51:10;13.57;;;6.80;;
71038;SDS011;58692;43.212;27.908;2023-10-19T02:53:37;14.48;;;7.10;;
71038;SDS011;58692;43.212;27.908;2023-10-19T02:56:11;18.02;;;8.38;;
71038;SDS011;58692;43.212;27.908;2023-10-19T02:58:40;18.33;;;9.10;;
71038;SDS011;58692;43.212;27.908;2023-10-19T03:01:12;19.25;;;9.85;;
71038;SDS011;58692;43.212;27.908;2023-10-19T03:03:39;22.13;;;11.10;;
71038;SDS011;58692;43.212;27.908;2023-10-19T03:06:08;22.73;;;11.35;;
71038;SDS011;58692;43.212;27.908;2023-10-19T03:08:35;20.80;;;12.02;;
71038;SDS011;58692;43.212;27.908;2023-10-19T03:11:01;26.48;;;12.77;;
71038;SDS011;58692;43.212;27.908;2023-10-19T03:13:30;22.70;;;12.80;;
71038;SDS011;58692;43.212;27.908;2023-10-19T03:15:58;30.05;;;15.40;;
71038;SDS011;58692;43.212;27.908;2023-10-19T03:18:26;33.08;;;16.40;;
71038;SDS011;58692;43.212;27.908;2023-10-19T03:20:53;25.75;;;15.65;;
71038;SDS011;58692;43.212;27.908;2023-10-19T03:23:19;27.30;;;14.73;;
71038;SDS011;58692;43.212;27.908;2023-10-19T03:25:46;36.05;;;19.92;;
71038;SDS011;58692;43.212;27.908;2023-10-19T03:28:27;42.38;;;21.67;;
71038;SDS011;58692;43.212;27.908;2023-10-19T03:30:54;37.67;;;19.50;;
71038;SDS011;58692;43.212;27.908;2023-10-19T03:33:20;37.50;;;19.73;;
71038;SDS011;58692;43.212;27.908;2023-10-19T03:35:51;36.53;;;19.23;;
71038;SDS011;58692;43.212;27.908;2023-10-19T03:38:17;36.55;;;19.38;;
71038;SDS011;58692;43.212;27.908;2023-10-19T03:40:44;36.65;;;19.95;;
71038;SDS011;58692;43.212;27.908;2023-10-19T03:43:16;39.77;;;21.93;;
71038;SDS011;58692;43.212;27.908;2023-10-19T03:45:43;41.88;;;24.50;;
71038;SDS011;58692;43.212;27.908;2023-10-19T03:48:18;48.53;;;26.15;;
71038;SDS011;58692;43.212;27.908;2023-10-19T03:50:49;50.53;;;27.00;;
71038;SDS011;58692;43.212;27.908;2023-10-19T03:53:17;49.03;;;25.50;;
71038;SDS011;58692;43.212;27.908;2023-10-19T03:55:43;42.87;;;23.90;;
71038;SDS011;58692;43.212;27.908;2023-10-19T03:58:09;44.10;;;24.02;;
71038;SDS011;58692;43.212;27.908;2023-10-19T04:00:37;43.72;;;23.05;;
71038;SDS011;58692;43.212;27.908;2023-10-19T04:03:02;43.88;;;22.83;;
71038;SDS011;58692;43.212;27.908;2023-10-19T04:05:28;39.83;;;22.67;;
71038;SDS011;58692;43.212;27.908;2023-10-19T04:07:55;43.75;;;22.88;;
71038;SDS011;58692;43.212;27.908;2023-10-19T04:10:22;42.20;;;22.90;;
71038;SDS011;58692;43.212;27.908;2023-10-19T04:13:03;41.85;;;23.58;;
71038;SDS011;58692;43.212;27.908;2023-10-19T04:15:30;39.07;;;23.20;;
71038;SDS011;58692;43.212;27.908;2023-10-19T04:17:59;38.97;;;22.63;;
71038;SDS011;58692;43.212;27.908;2023-10-19T04:20:25;41.30;;;23.13;;
71038;SDS011;58692;43.212;27.908;2023-10-19T04:22:55;43.13;;;23.48;;
71038;SDS011;58692;43.212;27.908;2023-10-19T04:25:30;42.00;;;22.77;;
71038;SDS011;58692;43.212;27.908;2023-10-19T04:27:58;34.60;;;19.27;;
71038;SDS011;58692;43.212;27.908;2023-10-19T04:30:25;39.05;;;19.67;;
71038;SDS011;58692;43.212;27.908;2023-10-19T04:32:58;33.42;;;19.55;;
71038;SDS011;58692;43.212;27.908;2023-10-19T04:35:26;29.53;;;16.63;;
71038;SDS011;58692;43.212;27.908;2023-10-19T04:37:55;33.15;;;16.83;;
71038;SDS011;58692;43.212;27.908;2023-10-19T04:40:22;33.45;;;16.80;;
71038;SDS011;58692;43.212;27.908;2023-10-19T04:42:51;31.60;;;15.80;;
71038;SDS011;58692;43.212;27.908;2023-10-19T04:45:17;31.73;;;15.98;;
71038;SDS011;58692;43.212;27.908;2023-10-19T04:47:43;28.47;;;16.23;;
71038;SDS011;58692;43.212;27.908;2023-10-19T04:50:09;25.48;;;14.10;;
71038;SDS011;58692;43.212;27.908;2023-10-19T04:52:36;26.43;;;14.03;;
71038;SDS011;58692;43.212;27.908;2023-10-19T04:55:02;32.47;;;14.88;;
71038;SDS011;58692;43.212;27.908;2023-10-19T04:57:28;26.85;;;15.15;;
71038;SDS011;58692;43.212;27.908;2023-10-19T04:59:54;32.97;;;15.93;;
71038;SDS011;58692;43.212;27.908;2023-10-19T05:02:20;29.17;;;15.05;;
71038;SDS011;58692;43.212;27.908;2023-10-19T05:04:46;34.60;;;16.65;;
71038;SDS011;58692;43.212;27.908;2023-10-19T05:07:12;31.05;;;16.25;;
71038;SDS011;58692;43.212;27.908;2023-10-19T05:09:41;31.60;;;16.33;;
71038;SDS011;58692;43.212;27.908;2023-10-19T05:12:07;33.63;;;16.73;;
71038;SDS011;58692;43.212;27.908;2023-10-19T05:14:35;31.92;;;16.27;;
71038;SDS011;58692;43.212;27.908;2023-10-19T05:17:01;29.27;;;15.93;;
71038;SDS011;58692;43.212;27.908;2023-10-19T05:19:31;35.15;;;16.15;;
71038;SDS011;58692;43.212;27.908;2023-10-19T05:22:00;27.93;;;15.40;;
71038;SDS011;58692;43.212;27.908;2023-10-19T05:24:26;27.08;;;16.08;;
71038;SDS011;58692;43.212;27.908;2023-10-19T05:26:52;28.02;;;15.68;;
71038;SDS011;58692;43.212;27.908;2023-10-19T05:29:19;30.25;;;15.02;;
71038;SDS011;58692;43.212;27.908;2023-10-19T05:31:45;30.58;;;15.82;;
71038;SDS011;58692;43.212;27.908;2023-10-19T05:34:11;29.33;;;15.97;;
71038;SDS011;58692;43.212;27.908;2023-10-19T05:36:37;32.15;;;17.02;;
71038;SDS011;58692;43.212;27.908;2023-10-19T05:39:13;34.03;;;18.27;;
71038;SDS011;58692;43.212;27.908;2023-10-19T05:41:39;35.63;;;17.83;;
71038;SDS011;58692;43.212;27.908;2023-10-19T05:44:05;35.43;;;18.13;;
71038;SDS011;58692;43.212;27.908;2023-10-19T05:46:31;40.08;;;19.38;;
71038;SDS011;58692;43.212;27.908;2023-10-19T05:48:57;43.55;;;18.17;;
71038;SDS011;58692;43.212;27.908;2023-10-19T05:51:23;38.43;;;19.73;;
71038;SDS011;58692;43.212;27.908;2023-10-19T05:53:49;38.38;;;18.88;;
71038;SDS011;58692;43.212;27.908;2023-10-19T05:56:16;40.40;;;18.90;;
71038;SDS011;58692;43.212;27.908;2023-10-19T05:58:42;40.25;;;19.73;;
71038;SDS011;58692;43.212;27.908;2023-10-19T06:01:09;35.83;;;19.27;;
71038;SDS011;58692;43.212;27.908;2023-10-19T06:03:38;40.33;;;19.27;;
71038;SDS011;58692;43.212;27.908;2023-10-19T06:06:04;40.53;;;19.35;;
71038;SDS011;58692;43.212;27.908;2023-10-19T06:08:30;39.43;;;18.40;;
71038;SDS011;58692;43.212;27.908;2023-10-19T06:10:58;41.97;;;20.08;;
71038;SDS011;58692;43.212;27.908;2023-10-19T06:14:04;39.08;;;19.23;;
71038;SDS011;58692;43.212;27.908;2023-10-19T06:16:33;42.55;;;19.85;;
71038;SDS011;58692;43.212;27.908;2023-10-19T06:18:59;39.50;;;20.10;;
71038;SDS011;58692;43.212;27.908;2023-10-19T06:21:25;40.08;;;19.98;;
71038;SDS011;58692;43.212;27.908;2023-10-19T06:23:51;43.03;;;21.35;;
71038;SDS011;58692;43.212;27.908;2023-10-19T06:26:18;42.83;;;20.85;;
71038;SDS011;58692;43.212;27.908;2023-10-19T06:28:44;35.33;;;20.93;;
71038;SDS011;58692;43.212;27.908;2023-10-19T06:31:10;36.33;;;20.65;;
71038;SDS011;58692;43.212;27.908;2023-10-19T06:33:36;43.03;;;20.58;;
71038;SDS011;58692;43.212;27.908;2023-10-19T06:36:06;37.07;;;22.33;;
71038;SDS011;58692;43.212;27.908;2023-10-19T06:38:34;39.15;;;22.40;;
71038;SDS011;58692;43.212;27.908;2023-10-19T06:41:01;43.10;;;22.45;;
71038;SDS011;58692;43.212;27.908;2023-10-19T06:43:36;42.85;;;22.80;;
71038;SDS011;58692;43.212;27.908;2023-10-19T06:46:05;48.25;;;24.70;;
71038;SDS011;58692;43.212;27.908;2023-10-19T06:48:31;35.43;;;23.47;;
71038;SDS011;58692;43.212;27.908;2023-10-19T06:50:57;40.80;;;24.73;;
71038;SDS011;58692;43.212;27.908;2023-10-19T06:53:23;47.92;;;26.70;;
71038;SDS011;58692;43.212;27.908;2023-10-19T06:55:51;41.35;;;24.38;;
71038;SDS011;58692;43.212;27.908;2023-10-19T06:58:36;52.67;;;25.27;;
71038;SDS011;58692;43.212;27.908;2023-10-19T07:01:09;44.63;;;25.40;;
71038;SDS011;58692;43.212;27.908;2023-10-19T07:06:36;41.42;;;20.33;;
71038;SDS011;58692;43.212;27.908;2023-10-19T07:09:05;37.30;;;19.85;;
71038;SDS011;58692;43.212;27.908;2023-10-19T07:11:31;36.40;;;18.47;;
71038;SDS011;58692;43.212;27.908;2023-10-19T07:13:58;37.28;;;17.55;;
71038;SDS011;58692;43.212;27.908;2023-10-19T07:16:25;28.80;;;15.05;;
71038;SDS011;58692;43.212;27.908;2023-10-19T07:18:53;33.00;;;16.00;;
71038;SDS011;58692;43.212;27.908;2023-10-19T07:21:22;30.90;;;16.87;;
71038;SDS011;58692;43.212;27.908;2023-10-19T07:23:48;28.20;;;13.45;;
71038;SDS011;58692;43.212;27.908;2023-10-19T07:26:17;22.75;;;11.38;;
71038;SDS011;58692;43.212;27.908;2023-10-19T07:28:46;17.20;;;9.30;;
71038;SDS011;58692;43.212;27.908;2023-10-19T07:31:12;14.83;;;9.00;;
71038;SDS011;58692;43.212;27.908;2023-10-19T07:33:40;12.50;;;6.07;;
71038;SDS011;58692;43.212;27.908;2023-10-19T07:36:12;14.82;;;7.85;;
71038;SDS011;58692;43.212;27.908;2023-10-19T07:38:40;15.93;;;7.28;;
71038;SDS011;58692;43.212;27.908;2023-10-19T07:41:07;15.07;;;7.20;;
71038;SDS011;58692;43.212;27.908;2023-10-19T07:47:34;16.00;;;5.80;;
71038;SDS011;58692;43.212;27.908;2023-10-19T07:50:00;11.43;;;4.90;;
71038;SDS011;58692;43.212;27.908;2023-10-19T07:52:28;11.27;;;4.53;;
71038;SDS011;58692;43.212;27.908;2023-10-19T07:54:53;7.53;;;2.95;;
71038;SDS011;58692;43.212;27.908;2023-10-19T07:57:19;7.47;;;2.80;;
71038;SDS011;58692;43.212;27.908;2023-10-19T07:59:45;11.05;;;3.28;;
71038;SDS011;58692;43.212;27.908;2023-10-19T08:02:17;9.98;;;3.22;;
71038;SDS011;58692;43.212;27.908;2023-10-19T08:04:42;8.90;;;3.30;;
71038;SDS011;58692;43.212;27.908;2023-10-19T08:07:08;11.27;;;2.53;;
71038;SDS011;58692;43.212;27.908;2023-10-19T08:09:35;11.67;;;2.80;;
71038;SDS011;58692;43.212;27.908;2023-10-19T08:12:01;7.57;;;2.40;;
71038;SDS011;58692;43.212;27.908;2023-10-19T08:14:30;11.15;;;2.90;;
71038;SDS011;58692;43.212;27.908;2023-10-19T08:16:56;8.70;;;2.47;;
71038;SDS011;58692;43.212;27.908;2023-10-19T08:19:21;8.67;;;1.80;;
71038;SDS011;58692;43.212;27.908;2023-10-19T08:21:50;8.02;;;2.38;;
71038;SDS011;58692;43.212;27.908;2023-10-19T08:24:18;6.18;;;1.70;;
71038;SDS011;58692;43.212;27.908;2023-10-19T08:26:46;4.17;;;1.70;;
71038;SDS011;58692;43.212;27.908;2023-10-19T08:29:12;3.88;;;1.80;;
71038;SDS011;58692;43.212;27.908;2023-10-19T08:31:41;5.07;;;1.95;;
71038;SDS011;58692;43.212;27.908;2023-10-19T08:34:12;4.55;;;1.58;;
71038;SDS011;58692;43.212;27.908;2023-10-19T08:36:42;6.20;;;1.77;;
71038;SDS011;58692;43.212;27.908;2023-10-19T08:39:08;3.22;;;1.70;;
71038;SDS011;58692;43.212;27.908;2023-10-19T08:41:50;5.90;;;1.60;;
71038;SDS011;58692;43.212;27.908;2023-10-19T08:44:19;4.72;;;1.80;;
71038;SDS011;58692;43.212;27.908;2023-10-19T08:46:47;5.17;;;1.60;;
71038;SDS011;58692;43.212;27.908;2023-10-19T08:49:14;4.75;;;1.70;;
71038;SDS011;58692;43.212;27.908;2023-10-19T08:51:43;8.40;;;1.77;;
71038;SDS011;58692;43.212;27.908;2023-10-19T08:54:10;5.57;;;1.50;;
71038;SDS011;58692;43.212;27.908;2023-10-19T08:56:37;3.60;;;1.50;;
71038;SDS011;58692;43.212;27.908;2023-10-19T08:59:04;6.32;;;1.65;;
71038;SDS011;58692;43.212;27.908;2023-10-19T09:01:31;4.97;;;1.52;;
71038;SDS011;58692;43.212;27.908;2023-10-19T09:03:57;6.47;;;1.70;;
71038;SDS011;58692;43.212;27.908;2023-10-19T09:06:24;8.60;;;1.60;;
71038;SDS011;58692;43.212;27.908;2023-10-19T09:08:50;5.60;;;1.50;;
71038;SDS011;58692;43.212;27.908;2023-10-19T09:11:17;4.80;;;1.70;;
71038;SDS011;58692;43.212;27.908;2023-10-19T09:13:47;4.00;;;1.40;;
71038;SDS011;58692;43.212;27.908;2023-10-19T09:16:15;4.93;;;1.55;;
71038;SDS011;58692;43.212;27.908;2023-10-19T09:18:42;4.22;;;1.48;;
71038;SDS011;58692;43.212;27.908;2023-10-19T09:21:10;6.43;;;1.60;;
71038;SDS011;58692;43.212;27.908;2023-10-19T09:23:38;4.38;;;1.60;;
71038;SDS011;58692;43.212;27.908;2023-10-19T09:26:05;8.30;;;1.92;;
71038;SDS011;58692;43.212;27.908;2023-10-19T09:28:35;7.75;;;1.70;;
71038;SDS011;58692;43.212;27.908;2023-10-19T09:31:02;9.88;;;2.00;;
71038;SDS011;58692;43.212;27.908;2023-10-19T09:33:28;5.87;;;1.90;;
71038;SDS011;58692;43.212;27.908;2023-10-19T09:35:59;6.03;;;1.70;;
71038;SDS011;58692;43.212;27.908;2023-10-19T09:38:26;6.25;;;1.70;;
71038;SDS011;58692;43.212;27.908;2023-10-19T09:40:53;5.28;;;1.70;;
71038;SDS011;58692;43.212;27.908;2023-10-19T09:45:56;7.50;;;2.20;;
71038;SDS011;58692;43.212;27.908;2023-10-19T09:48:26;5.13;;;1.80;;
71038;SDS011;58692;43.212;27.908;2023-10-19T09:50:53;5.60;;;1.77;;
71038;SDS011;58692;43.212;27.908;2023-10-19T09:53:23;5.50;;;2.20;;
71038;SDS011;58692;43.212;27.908;2023-10-19T09:55:53;8.52;;;2.35;;
71038;SDS011;58692;43.212;27.908;2023-10-19T09:58:23;5.80;;;1.83;;
71038;SDS011;58692;43.212;27.908;2023-10-19T10:00:54;6.88;;;1.70;;
71038;SDS011;58692;43.212;27.908;2023-10-19T10:04:02;5.93;;;1.85;;
71038;SDS011;58692;43.212;27.908;2023-10-19T10:06:18;4.75;;;1.58;;
71038;SDS011;58692;43.212;27.908;2023-10-19T10:08:53;5.35;;;1.70;;
71038;SDS011;58692;43.212;27.908;2023-10-19T10:11:21;5.70;;;1.90;;
71038;SDS011;58692;43.212;27.908;2023-10-19T10:13:53;7.10;;;2.00;;
71038;SDS011;58692;43.212;27.908;2023-10-19T10:16:22;6.63;;;2.60;;
71038;SDS011;58692;43.212;27.908;2023-10-19T10:18:50;4.97;;;1.90;;
71038;SDS011;58692;43.212;27.908;2023-10-19T10:21:19;6.72;;;2.10;;
71038;SDS011;58692;43.212;27.908;2023-10-19T10:24:11;7.67;;;2.20;;
71038;SDS011;58692;43.212;27.908;2023-10-19T10:29:25;6.97;;;1.60;;
71038;SDS011;58692;43.212;27.908;2023-10-19T10:31:52;7.03;;;2.15;;
71038;SDS011;58692;43.212;27.908;2023-10-19T10:37:00;5.90;;;1.80;;
71038;SDS011;58692;43.212;27.908;2023-10-19T10:39:27;4.57;;;1.70;;
71038;SDS011;58692;43.212;27.908;2023-10-19T10:41:56;5.90;;;1.77;;
71038;SDS011;58692;43.212;27.908;2023-10-19T10:45:00;6.53;;;2.17;;
71038;SDS011;58692;43.212;27.908;2023-10-19T10:47:10;6.38;;;2.08;;
71038;SDS011;58692;43.212;27.908;2023-10-19T10:52:25;5.50;;;2.25;;
71038;SDS011;58692;43.212;27.908;2023-10-19T10:54:54;10.10;;;2.45;;
71038;SDS011;58692;43.212;27.908;2023-10-19T10:57:20;9.15;;;2.13;;
71038;SDS011;58692;43.212;27.908;2023-10-19T10:59:46;4.87;;;1.80;;
71038;SDS011;58692;43.212;27.908;2023-10-19T11:02:19;6.38;;;2.13;;
71038;SDS011;58692;43.212;27.908;2023-10-19T11:04:46;6.47;;;2.40;;
71038;SDS011;58692;43.212;27.908;2023-10-19T11:07:19;4.78;;;1.98;;
71038;SDS011;58692;43.212;27.908;2023-10-19T11:09:46;7.18;;;2.67;;
71038;SDS011;58692;43.212;27.908;2023-10-19T11:12:13;7.72;;;2.47;;
71038;SDS011;58692;43.212;27.908;2023-10-19T11:17:24;7.35;;;2.22;;
71038;SDS011;58692;43.212;27.908;2023-10-19T11:19:58;4.82;;;1.90;;
71038;SDS011;58692;43.212;27.908;2023-10-19T11:22:26;3.67;;;1.50;;
71038;SDS011;58692;43.212;27.908;2023-10-19T11:24:52;5.50;;;1.80;;
71038;SDS011;58692;43.212;27.908;2023-10-19T11:27:23;5.45;;;1.90;;
71038;SDS011;58692;43.212;27.908;2023-10-19T11:29:56;5.82;;;2.10;;
71038;SDS011;58692;43.212;27.908;2023-10-19T11:32:23;3.83;;;1.60;;
71038;SDS011;58692;43.212;27.908;2023-10-19T11:34:51;10.05;;;1.80;;
71038;SDS011;58692;43.212;27.908;2023-10-19T11:37:18;6.40;;;1.80;;
71038;SDS011;58692;43.212;27.908;2023-10-19T11:39:43;5.25;;;1.98;;
71038;SDS011;58692;43.212;27.908;2023-10-19T11:42:08;8.00;;;2.03;;
71038;SDS011;58692;43.212;27.908;2023-10-19T11:44:35;5.88;;;2.20;;
71038;SDS011;58692;43.212;27.908;2023-10-19T11:47:01;6.30;;;2.08;;
71038;SDS011;58692;43.212;27.908;2023-10-19T11:49:28;5.67;;;2.30;;
71038;SDS011;58692;43.212;27.908;2023-10-19T11:51:54;6.28;;;2.20;;
71038;SDS011;58692;43.212;27.908;2023-10-19T11:54:20;11.27;;;2.10;;
71038;SDS011;58692;43.212;27.908;2023-10-19T11:56:46;6.65;;;2.17;;
71038;SDS011;58692;43.212;27.908;2023-10-19T11:59:13;4.70;;;2.35;;
71038;SDS011;58692;43.212;27.908;2023-10-19T12:01:40;10.83;;;2.80;;
71038;SDS011;58692;43.212;27.908;2023-10-19T12:04:07;5.35;;;1.85;;
71038;SDS011;58692;43.212;27.908;2023-10-19T12:06:34;8.73;;;2.40;;
71038;SDS011;58692;43.212;27.908;2023-10-19T12:09:00;5.47;;;2.08;;
71038;SDS011;58692;43.212;27.908;2023-10-19T12:11:39;8.02;;;2.17;;
71038;SDS011;58692;43.212;27.908;2023-10-19T12:14:05;5.13;;;2.00;;
71038;SDS011;58692;43.212;27.908;2023-10-19T12:16:34;5.28;;;1.90;;
71038;SDS011;58692;43.212;27.908;2023-10-19T12:18:59;4.90;;;1.80;;
71038;SDS011;58692;43.212;27.908;2023-10-19T12:21:25;5.72;;;1.80;;
71038;SDS011;58692;43.212;27.908;2023-10-19T12:23:52;5.95;;;1.70;;
71038;SDS011;58692;43.212;27.908;2023-10-19T12:26:20;7.13;;;2.00;;
71038;SDS011;58692;43.212;27.908;2023-10-19T12:28:48;5.95;;;1.92;;
71038;SDS011;58692;43.212;27.908;2023-10-19T12:31:14;6.68;;;1.92;;
71038;SDS011;58692;43.212;27.908;2023-10-19T12:33:43;8.00;;;1.93;;
71038;SDS011;58692;43.212;27.908;2023-10-19T12:36:10;7.22;;;2.15;;
71038;SDS011;58692;43.212;27.908;2023-10-19T12:38:51;7.53;;;1.77;;
71038;SDS011;58692;43.212;27.908;2023-10-19T12:41:18;5.22;;;1.50;;
71038;SDS011;58692;43.212;27.908;2023-10-19T12:43:44;5.20;;;1.60;;
71038;SDS011;58692;43.212;27.908;2023-10-19T12:46:13;3.47;;;1.50;;
71038;SDS011;58692;43.212;27.908;2023-10-19T12:48:40;8.00;;;1.63;;
71038;SDS011;58692;43.212;27.908;2023-10-19T12:51:05;4.95;;;1.35;;
71038;SDS011;58692;43.212;27.908;2023-10-19T12:53:34;4.18;;;1.30;;
71038;SDS011;58692;43.212;27.908;2023-10-19T12:56:00;4.88;;;1.40;;
71038;SDS011;58692;43.212;27.908;2023-10-19T12:58:25;4.77;;;1.30;;
71038;SDS011;58692;43.212;27.908;2023-10-19T13:00:53;5.95;;;1.42;;
71038;SDS011;58692;43.212;27.908;2023-10-19T13:03:20;4.10;;;1.30;;
71038;SDS011;58692;43.212;27.908;2023-10-19T13:05:47;6.13;;;1.40;;
71038;SDS011;58692;43.212;27.908;2023-10-19T13:08:14;3.20;;;1.10;;
71038;SDS011;58692;43.212;27.908;2023-10-19T13:10:42;5.50;;;1.40;;
71038;SDS011;58692;43.212;27.908;2023-10-19T13:13:10;4.43;;;1.25;;
71038;SDS011;58692;43.212;27.908;2023-10-19T13:15:37;5.57;;;1.20;;
71038;SDS011;58692;43.212;27.908;2023-10-19T13:18:06;4.57;;;1.20;;
71038;SDS011;58692;43.212;27.908;2023-10-19T13:20:34;2.80;;;1.40;;
71038;SDS011;58692;43.212;27.908;2023-10-19T13:23:01;3.75;;;1.35;;
71038;SDS011;58692;43.212;27.908;2023-10-19T13:25:30;4.03;;;1.52;;
71038;SDS011;58692;43.212;27.908;2023-10-19T13:28:06;5.45;;;1.23;;
71038;SDS011;58692;43.212;27.908;2023-10-19T13:30:41;3.80;;;1.30;;
71038;SDS011;58692;43.212;27.908;2023-10-19T13:33:12;2.88;;;1.10;;
71038;SDS011;58692;43.212;27.908;2023-10-19T13:35:39;4.75;;;1.42;;
71038;SDS011;58692;43.212;27.908;2023-10-19T13:38:07;4.65;;;1.38;;
71038;SDS011;58692;43.212;27.908;2023-10-19T13:40:35;9.18;;;1.65;;
71038;SDS011;58692;43.212;27.908;2023-10-19T13:43:01;4.80;;;1.23;;
71038;SDS011;58692;43.212;27.908;2023-10-19T13:45:30;5.70;;;1.33;;
71038;SDS011;58692;43.212;27.908;2023-10-19T13:47:57;4.28;;;1.20;;
71038;SDS011;58692;43.212;27.908;2023-10-19T13:50:24;2.83;;;1.15;;
71038;SDS011;58692;43.212;27.908;2023-10-19T13:52:51;6.63;;;1.50;;
71038;SDS011;58692;43.212;27.908;2023-10-19T13:55:19;7.17;;;1.60;;
71038;SDS011;58692;43.212;27.908;2023-10-19T13:57:46;3.92;;;1.50;;
71038;SDS011;58692;43.212;27.908;2023-10-19T14:00:16;5.22;;;1.40;;
71038;SDS011;58692;43.212;27.908;2023-10-19T14:02:55;6.75;;;1.17;;
71038;SDS011;58692;43.212;27.908;2023-10-19T14:05:29;6.82;;;1.45;;
71038;SDS011;58692;43.212;27.908;2023-10-19T14:07:55;4.43;;;1.30;;
71038;SDS011;58692;43.212;27.908;2023-10-19T14:10:21;4.82;;;1.45;;
71038;SDS011;58692;43.212;27.908;2023-10-19T14:12:47;3.78;;;1.48;;
71038;SDS011;58692;43.212;27.908;2023-10-19T14:15:15;2.33;;;1.23;;
71038;SDS011;58692;43.212;27.908;2023-10-19T14:17:43;8.63;;;1.70;;
71038;SDS011;58692;43.212;27.908;2023-10-19T14:20:11;5.13;;;1.20;;
71038;SDS011;58692;43.212;27.908;2023-10-19T14:22:39;4.32;;;1.20;;
71038;SDS011;58692;43.212;27.908;2023-10-19T14:25:06;6.55;;;1.30;;
71038;SDS011;58692;43.212;27.908;2023-10-19T14:27:37;5.23;;;1.50;;
71038;SDS011;58692;43.212;27.908;2023-10-19T14:30:05;4.43;;;1.80;;
71038;SDS011;58692;43.212;27.908;2023-10-19T14:32:32;4.30;;;1.20;;
71038;SDS011;58692;43.212;27.908;2023-10-19T14:34:57;5.73;;;1.40;;
71038;SDS011;58692;43.212;27.908;2023-10-19T14:37:23;3.97;;;1.40;;
71038;SDS011;58692;43.212;27.908;2023-10-19T14:39:49;6.13;;;1.88;;
71038;SDS011;58692;43.212;27.908;2023-10-19T14:42:15;4.37;;;1.33;;
71038;SDS011;58692;43.212;27.908;2023-10-19T14:44:40;5.95;;;1.77;;
71038;SDS011;58692;43.212;27.908;2023-10-19T14:47:06;4.97;;;1.40;;
71038;SDS011;58692;43.212;27.908;2023-10-19T14:49:32;5.53;;;1.70;;
71038;SDS011;58692;43.212;27.908;2023-10-19T14:51:58;7.17;;;1.70;;
71038;SDS011;58692;43.212;27.908;2023-10-19T14:54:23;3.80;;;1.30;;